Time;durP1;ratioP1;P1;durP2;ratioP2;P2;SDS_P1;SDS_P2;PMS_P1;PMS_P2;Temp;Humidity;BMP_temperature;BMP_pressure;BME280_temperature;BME280_humidity;BME280_pressure;Samples;Min_cycle;Max_cycle;Signal;HPM_P1;HPM_P2
2023/01/23 00:00:51;;;;;;;4.30;3.90;;;;;;;9.70;100.00;94962.84;5033501;28;20630;-57
2023/01/23 00:03:17;;;;;;;6.13;3.77;;;;;;;9.83;100.00;94985.59;5033247;28;20210;-55
2023/01/23 00:05:43;;;;;;;6.43;3.33;;;;;;;9.63;100.00;94955.84;5048705;28;20224;-56
2023/01/23 00:08:08;;;;;;;3.93;3.53;;;;;;;9.62;100.00;94960.09;5033321;28;20218;-57
2023/01/23 00:10:34;;;;;;;4.10;3.37;;;;;;;9.61;100.00;94967.84;5033031;28;20257;-56
2023/01/23 00:12:59;;;;;;;4.50;3.80;;;;;;;9.61;100.00;94958.50;5033163;28;20217;-58
2023/01/23 00:15:26;;;;;;;4.90;3.30;;;;;;;9.59;100.00;94969.69;5033497;28;20196;-56
2023/01/23 00:17:52;;;;;;;5.77;4.00;;;;;;;9.51;100.00;94947.44;5032141;28;20241;-57
2023/01/23 00:20:17;;;;;;;5.93;4.23;;;;;;;9.35;100.00;94896.22;5029480;28;20213;-57
2023/01/23 00:22:43;;;;;;;7.53;4.33;;;;;;;9.49;100.00;94934.06;5029674;28;20758;-57
2023/01/23 00:25:08;;;;;;;4.70;3.83;;;;;;;9.49;100.00;94933.25;5030912;28;20652;-57
2023/01/23 00:27:33;;;;;;;12.40;4.40;;;;;;;9.47;100.00;94919.88;5031029;28;20214;-56
2023/01/23 00:29:59;;;;;;;6.83;3.93;;;;;;;9.50;100.00;94930.56;5032004;28;20675;-57
2023/01/23 00:32:24;;;;;;;4.37;3.60;;;;;;;9.36;100.00;94915.59;5032505;28;20267;-58
2023/01/23 00:34:50;;;;;;;5.47;4.33;;;;;;;9.41;100.00;94900.03;5032693;28;20182;-54
2023/01/23 00:37:16;;;;;;;4.63;3.93;;;;;;;9.48;100.00;94939.22;5048370;28;20675;-58
2023/01/23 00:39:41;;;;;;;5.80;4.27;;;;;;;9.51;100.00;94941.53;5032505;28;20239;-57
2023/01/23 00:42:07;;;;;;;5.27;4.27;;;;;;;9.48;100.00;94919.75;5032329;28;20262;-57
2023/01/23 00:44:33;;;;;;;7.30;4.73;;;;;;;9.60;100.00;94945.91;5048127;28;20190;-55
2023/01/23 00:47:00;;;;;;;9.47;6.43;;;;;;;9.52;100.00;94923.66;5014686;28;20296;-57
2023/01/23 00:49:32;;;;;;;4.17;3.40;;;;;;;9.52;100.00;94938.06;5033380;28;20606;-54
2023/01/23 00:51:57;;;;;;;5.00;4.13;;;;;;;9.50;100.00;94914.53;5031444;28;20190;-54
2023/01/23 00:54:24;;;;;;;5.30;3.80;;;;;;;9.57;100.00;94939.34;5032512;28;20228;-61
2023/01/23 00:56:50;;;;;;;6.97;4.27;;;;;;;9.56;100.00;94983.41;5032367;28;20190;-57
2023/01/23 00:59:16;;;;;;;5.70;4.20;;;;;;;9.42;100.00;94927.00;5032223;28;20263;-57
2023/01/23 01:01:41;;;;;;;4.33;3.87;;;;;;;9.48;100.00;94947.66;5032424;28;20269;-60
2023/01/23 01:04:07;;;;;;;6.40;3.50;;;;;;;9.52;100.00;94963.44;5032379;28;20301;-54
2023/01/23 01:06:32;;;;;;;5.30;4.00;;;;;;;9.48;100.00;94934.97;5032350;28;20202;-54
2023/01/23 01:08:58;;;;;;;6.13;3.93;;;;;;;9.50;100.00;94963.56;5031825;28;20226;-53
2023/01/23 01:11:42;;;;;;;5.33;3.57;;;;;;;9.51;100.00;94972.00;5032041;28;20174;-54
2023/01/23 01:14:08;;;;;;;5.03;4.07;;;;;;;9.51;100.00;94966.91;5032561;28;20644;-55
2023/01/23 01:16:34;;;;;;;5.37;3.70;;;;;;;9.47;100.00;94970.59;5032312;28;20189;-56
2023/01/23 01:18:59;;;;;;;5.43;3.87;;;;;;;9.40;100.00;94937.28;5032036;28;20236;-57
2023/01/23 01:21:25;;;;;;;5.87;4.10;;;;;;;9.29;100.00;94897.47;5031906;28;20646;-57
2023/01/23 01:23:50;;;;;;;6.97;3.93;;;;;;;9.43;100.00;94921.84;5032584;28;20210;-56
2023/01/23 01:26:17;;;;;;;4.90;3.63;;;;;;;9.49;100.00;94954.34;5031875;28;20193;-56
2023/01/23 01:28:42;;;;;;;5.33;4.03;;;;;;;9.47;100.00;94963.81;5046593;28;20309;-56
2023/01/23 01:31:14;;;;;;;4.13;3.73;;;;;;;9.54;100.00;94999.66;5031783;28;20214;-53
2023/01/23 01:33:40;;;;;;;8.63;3.80;;;;;;;9.47;100.00;94986.66;5031912;28;20305;-54
2023/01/23 01:36:11;;;;;;;4.87;3.77;;;;;;;9.48;100.00;94988.25;5031555;28;20185;-54
2023/01/23 01:38:37;;;;;;;4.57;3.17;;;;;;;9.48;100.00;94978.09;5030340;28;20287;-54
2023/01/23 01:41:03;;;;;;;6.93;3.17;;;;;;;9.41;100.00;94979.50;5031815;28;20593;-53
2023/01/23 01:43:28;;;;;;;4.60;3.03;;;;;;;9.34;100.00;94955.50;5030538;28;20818;-54
2023/01/23 01:46:25;;;;;;;4.10;3.13;;;;;;;9.35;100.00;94929.22;5031374;28;20269;-53
2023/01/23 01:49:06;;;;;;;4.23;3.10;;;;;;;9.34;100.00;94917.44;5031396;28;20283;-54
2023/01/23 01:51:50;;;;;;;3.80;2.80;;;;;;;9.28;100.00;94900.16;5031313;28;20205;-54
2023/01/23 01:54:24;;;;;;;4.93;3.30;;;;;;;9.28;100.00;94912.81;5032046;28;20651;-56
2023/01/23 01:57:14;;;;;;;6.87;3.40;;;;;;;9.26;100.00;94904.53;5029993;28;20189;-57
2023/01/23 01:59:48;;;;;;;6.83;3.57;;;;;;;9.30;100.00;94908.44;5031626;28;20208;-54
2023/01/23 02:02:23;;;;;;;4.80;3.73;;;;;;;9.36;100.00;94912.25;5046678;28;20193;-54
2023/01/23 02:04:53;;;;;;;3.03;2.63;;;;;;;9.33;100.00;94908.22;5031185;28;20251;-53
2023/01/23 02:07:44;;;;;;;5.63;3.40;;;;;;;9.32;100.00;94909.13;5031046;28;20202;-54
2023/01/23 02:10:12;;;;;;;6.00;3.87;;;;;;;9.39;100.00;94925.53;5031366;28;20190;-53
2023/01/23 02:12:38;;;;;;;5.57;3.03;;;;;;;9.42;100.00;94925.28;5032062;28;20218;-55
2023/01/23 02:15:06;;;;;;;3.43;2.43;;;;;;;9.05;100.00;94880.81;5031333;28;20190;-55
2023/01/23 02:17:35;;;;;;;3.97;2.73;;;;;;;9.20;100.00;94898.19;5046251;28;20291;-56
2023/01/23 02:20:18;;;;;;;5.47;3.00;;;;;;;9.14;100.00;94924.03;5031229;28;20272;-55
2023/01/23 02:23:11;;;;;;;5.47;3.27;;;;;;;9.16;100.00;94923.91;5031526;28;20638;-54
2023/01/23 02:25:42;;;;;;;4.67;2.80;;;;;;;9.12;100.00;94909.84;5031208;28;20556;-56
2023/01/23 02:28:09;;;;;;;3.93;3.03;;;;;;;9.13;100.00;94911.47;5029779;28;20229;-56
2023/01/23 02:30:39;;;;;;;4.30;3.60;;;;;;;9.14;100.00;94910.53;5029279;28;20190;-56
2023/01/23 02:33:11;;;;;;;7.20;2.90;;;;;;;9.16;100.00;94916.28;5029361;28;20248;-55
2023/01/23 02:35:38;;;;;;;4.97;3.10;;;;;;;9.11;100.00;94915.84;5029352;28;20189;-54
2023/01/23 02:38:04;;;;;;;4.23;3.20;;;;;;;9.05;100.00;94912.00;5045302;28;20604;-56
2023/01/23 02:40:36;;;;;;;5.03;3.37;;;;;;;9.03;100.00;94908.78;5031684;28;20181;-56
2023/01/23 02:43:03;;;;;;;5.10;3.20;;;;;;;9.03;100.00;94915.59;5034702;28;20217;-58
2023/01/23 02:45:30;;;;;;;5.97;3.03;;;;;;;8.94;100.00;94909.47;5034578;28;20218;-57
2023/01/23 02:47:55;;;;;;;4.43;3.23;;;;;;;8.98;100.00;94915.94;5033365;28;20221;-53
2023/01/23 02:50:21;;;;;;;5.47;3.27;;;;;;;8.94;100.00;94916.28;5049799;28;20178;-54
2023/01/23 02:52:48;;;;;;;3.53;2.50;;;;;;;8.94;100.00;94918.81;5034201;28;20217;-53
2023/01/23 02:55:14;;;;;;;5.60;3.17;;;;;;;8.94;100.00;94936.56;5034568;28;20186;-53
2023/01/23 02:57:39;;;;;;;5.07;3.23;;;;;;;8.93;100.00;94930.66;5033926;28;20651;-54
2023/01/23 03:00:19;;;;;;;4.47;2.70;;;;;;;8.99;100.00;94924.31;5034165;28;20264;-54
2023/01/23 03:02:47;;;;;;;4.80;2.50;;;;;;;9.00;100.00;94936.09;5049339;28;20217;-53
2023/01/23 03:05:13;;;;;;;6.40;2.87;;;;;;;8.83;100.00;94911.16;5034273;28;20240;-54
2023/01/23 03:07:38;;;;;;;3.43;2.60;;;;;;;8.81;100.00;94938.34;5033818;28;20630;-54
2023/01/23 03:10:06;;;;;;;5.27;2.50;;;;;;;8.86;100.00;94944.72;5034139;28;20182;-53
2023/01/23 03:12:32;;;;;;;2.27;2.03;;;;;;;8.73;100.00;94930.50;5033811;28;20268;-52
2023/01/23 03:14:57;;;;;;;3.73;2.70;;;;;;;8.80;100.00;94935.03;5033959;28;20179;-56
2023/01/23 03:17:23;;;;;;;3.30;2.07;;;;;;;8.81;100.00;94956.91;5033636;28;20239;-56
2023/01/23 03:19:49;;;;;;;3.70;2.13;;;;;;;8.76;100.00;94948.84;5049027;28;20214;-56
2023/01/23 03:22:14;;;;;;;2.80;2.40;;;;;;;8.76;100.00;94953.09;5033824;28;20190;-57
2023/01/23 03:24:40;;;;;;;4.13;2.50;;;;;;;8.70;100.00;94934.09;5033966;28;20183;-56
2023/01/23 03:27:05;;;;;;;2.80;2.20;;;;;;;8.75;100.00;94954.81;5033914;28;20193;-53
2023/01/23 03:32:24;;;;;;;5.03;2.20;;;;;;;8.74;100.00;94942.28;5033652;28;20209;-57
2023/01/23 03:34:50;;;;;;;3.10;2.00;;;;;;;8.64;100.00;94921.88;5033535;28;20204;-56
2023/01/23 03:37:18;;;;;;;3.60;2.40;;;;;;;8.80;100.00;94941.81;5033504;28;20179;-57
2023/01/23 03:42:28;;;;;;;3.23;2.03;;;;;;;8.55;100.00;94920.00;5034246;28;20244;-52
2023/01/23 03:44:53;;;;;;;5.77;3.30;;;;;;;8.70;100.00;94925.69;5033894;28;20182;-59
2023/01/23 03:47:19;;;;;;;5.07;2.70;;;;;;;8.71;100.00;94904.47;5048767;28;20212;-58
2023/01/23 03:49:45;;;;;;;4.23;2.63;;;;;;;8.79;100.00;94955.41;5033978;28;20214;-55
2023/01/23 03:52:11;;;;;;;4.00;2.60;;;;;;;8.73;100.00;94943.19;5032659;28;20194;-57
2023/01/23 03:54:37;;;;;;;5.87;3.20;;;;;;;8.65;100.00;94945.47;5033263;28;20186;-58
2023/01/23 03:57:02;;;;;;;4.23;2.97;;;;;;;8.60;100.00;94940.75;5047425;28;20695;-57
2023/01/23 03:59:28;;;;;;;5.13;2.80;;;;;;;8.56;100.00;94921.63;5033140;28;20588;-56
2023/01/23 04:01:53;;;;;;;5.83;2.83;;;;;;;8.59;100.00;94935.78;5032883;28;20556;-54
2023/01/23 04:04:19;;;;;;;5.60;3.03;;;;;;;8.62;100.00;94930.50;5032504;28;20217;-53
2023/01/23 04:06:44;;;;;;;4.80;3.63;;;;;;;8.55;100.00;94949.59;5015190;28;20585;-56
2023/01/23 04:09:11;;;;;;;6.07;3.50;;;;;;;8.56;100.00;94951.22;5033024;28;20299;-54
2023/01/23 04:11:37;;;;;;;5.03;3.37;;;;;;;8.50;100.00;94951.66;5032643;28;20190;-54
2023/01/23 04:14:02;;;;;;;7.10;3.00;;;;;;;8.53;100.00;94953.94;5033240;28;20216;-54
2023/01/23 04:16:28;;;;;;;3.93;2.70;;;;;;;8.48;100.00;94946.69;5033211;28;20222;-54
2023/01/23 04:18:53;;;;;;;3.93;2.63;;;;;;;8.46;100.00;94961.22;5033409;28;20625;-53
2023/01/23 04:21:19;;;;;;;4.50;2.97;;;;;;;8.50;100.00;94974.44;5032972;28;20198;-53
2023/01/23 04:23:45;;;;;;;6.03;2.97;;;;;;;8.42;100.00;94953.00;5033389;28;20738;-56
2023/01/23 04:26:12;;;;;;;4.50;2.70;;;;;;;8.44;100.00;94957.97;5032826;28;20190;-55
2023/01/23 04:28:37;;;;;;;3.67;2.13;;;;;;;8.47;100.00;94972.94;5032965;28;20280;-55
2023/01/23 04:31:03;;;;;;;1.70;1.13;;;;;;;8.33;100.00;94975.66;5032797;28;20186;-56
2023/01/23 04:33:28;;;;;;;3.60;2.03;;;;;;;8.42;100.00;94985.94;5032877;28;20218;-56
2023/01/23 04:36:00;;;;;;;2.43;1.97;;;;;;;8.34;100.00;94983.13;5032652;28;20193;-55
2023/01/23 04:38:27;;;;;;;5.57;1.90;;;;;;;8.44;100.00;94978.25;5032754;28;20217;-53
2023/01/23 04:40:53;;;;;;;5.23;3.60;;;;;;;8.46;100.00;95011.88;5032582;28;20274;-53
2023/01/23 04:43:19;;;;;;;3.27;2.30;;;;;;;8.41;100.00;94999.53;5032675;28;20217;-53
2023/01/23 04:45:45;;;;;;;2.90;1.70;;;;;;;8.38;100.00;94994.66;5032484;28;20560;-54
2023/01/23 04:48:12;;;;;;;3.20;2.00;;;;;;;8.45;100.00;95007.72;5032200;28;20218;-52
2023/01/23 04:50:38;;;;;;;3.90;1.83;;;;;;;8.47;100.00;94993.22;5032708;28;20190;-54
2023/01/23 04:53:04;;;;;;;2.63;1.93;;;;;;;8.36;100.00;94971.16;5032514;28;20232;-52
2023/01/23 04:55:31;;;;;;;6.53;4.23;;;;;;;8.47;100.00;94978.00;5032100;28;20702;-53
2023/01/23 04:57:56;;;;;;;4.97;2.63;;;;;;;8.45;100.00;94974.78;5032419;28;20210;-54
2023/01/23 05:00:22;;;;;;;6.47;2.30;;;;;;;8.30;100.00;94955.63;5047679;28;20200;-54
2023/01/23 05:02:49;;;;;;;4.50;2.43;;;;;;;8.41;100.00;94966.59;5031144;28;20218;-53
2023/01/23 05:05:16;;;;;;;3.30;2.70;;;;;;;8.40;100.00;94971.78;5031462;28;20193;-57
2023/01/23 05:07:42;;;;;;;3.33;1.90;;;;;;;8.40;100.00;94961.66;5033547;28;20216;-54
2023/01/23 05:10:09;;;;;;;4.93;2.03;;;;;;;8.38;100.00;94973.63;5032716;28;20348;-57
2023/01/23 05:12:34;;;;;;;3.70;2.30;;;;;;;8.40;100.00;94967.50;5032383;28;20632;-55
2023/01/23 05:15:00;;;;;;;2.77;1.93;;;;;;;8.40;100.00;94975.09;5032072;28;20311;-55
2023/01/23 05:17:25;;;;;;;3.23;2.37;;;;;;;8.46;100.00;94984.78;5031919;28;20637;-55
2023/01/23 05:19:51;;;;;;;5.80;2.17;;;;;;;8.42;100.00;94980.84;5032277;28;20225;-55
2023/01/23 05:22:16;;;;;;;3.67;1.97;;;;;;;8.42;100.00;94992.75;5031778;28;20647;-56
2023/01/23 05:24:42;;;;;;;2.50;1.73;;;;;;;8.39;100.00;94992.94;5032024;28;20202;-53
2023/01/23 05:27:08;;;;;;;4.40;2.20;;;;;;;8.36;100.00;94996.50;5031719;28;20236;-54
2023/01/23 05:29:33;;;;;;;3.30;2.80;;;;;;;8.39;100.00;95001.34;5031776;28;20598;-53
2023/01/23 05:31:59;;;;;;;4.63;2.43;;;;;;;8.41;100.00;94989.38;5032012;28;20190;-54
2023/01/23 05:34:24;;;;;;;2.40;1.97;;;;;;;8.44;100.00;95021.31;5031830;28;20206;-55
2023/01/23 05:36:49;;;;;;;2.90;2.10;;;;;;;8.41;100.00;95019.78;5031961;28;20240;-55
2023/01/23 05:39:15;;;;;;;3.93;2.70;;;;;;;8.43;100.00;95019.66;5032893;28;20218;-57
2023/01/23 05:41:40;;;;;;;5.00;3.10;;;;;;;8.48;100.00;95026.97;5031286;28;20621;-54
2023/01/23 05:44:06;;;;;;;6.90;4.40;;;;;;;8.51;100.00;95025.00;5032469;28;20260;-53
2023/01/23 05:46:31;;;;;;;2.67;1.93;;;;;;;8.56;100.00;95071.13;5031425;28;20226;-53
2023/01/23 05:48:57;;;;;;;3.50;1.90;;;;;;;8.56;100.00;95058.44;5046762;28;20221;-54
2023/01/23 05:51:30;;;;;;;3.23;1.93;;;;;;;8.56;100.00;95072.84;5032097;28;20243;-57
2023/01/23 05:53:56;;;;;;;3.63;1.97;;;;;;;8.60;100.00;95082.66;5046695;28;20210;-55
2023/01/23 05:56:21;;;;;;;2.20;1.83;;;;;;;8.59;100.00;95072.59;5031754;28;20201;-56
2023/01/23 05:58:47;;;;;;;2.17;1.97;;;;;;;8.62;100.00;95085.06;5031709;28;20217;-55
2023/01/23 06:01:12;;;;;;;2.50;1.77;;;;;;;8.58;100.00;95081.94;5031674;28;20210;-58
2023/01/23 06:03:37;;;;;;;4.13;2.47;;;;;;;8.55;100.00;95076.25;5031195;28;20732;-57
2023/01/23 06:06:03;;;;;;;4.20;2.23;;;;;;;8.64;100.00;95096.72;5031662;28;20190;-58
2023/01/23 06:08:29;;;;;;;5.03;2.70;;;;;;;8.84;100.00;95124.00;5031660;28;20226;-57
2023/01/23 06:10:57;;;;;;;4.83;2.30;;;;;;;8.84;100.00;95125.72;5031604;28;20248;-54
2023/01/23 06:13:23;;;;;;;2.93;2.03;;;;;;;8.82;100.00;95155.44;5029667;28;20606;-54
2023/01/23 06:15:49;;;;;;;3.20;2.20;;;;;;;8.90;100.00;95132.91;5030635;28;20275;-55
2023/01/23 06:18:14;;;;;;;4.80;2.30;;;;;;;8.94;100.00;95152.06;5030261;28;20245;-58
2023/01/23 06:20:40;;;;;;;4.37;2.83;;;;;;;8.91;100.00;95152.25;5029868;28;20194;-54
2023/01/23 06:23:05;;;;;;;5.00;2.53;;;;;;;8.89;100.00;95144.75;5031201;28;20202;-54
2023/01/23 06:25:31;;;;;;;6.67;3.90;;;;;;;8.86;100.00;95134.03;5031933;28;20182;-57
2023/01/23 06:27:56;;;;;;;5.70;3.20;;;;;;;9.78;100.00;95033.34;5031076;28;20221;-57
2023/01/23 06:30:22;;;;;;;9.63;6.43;;;;;;;9.83;100.00;95169.22;5031335;28;20186;-58
2023/01/23 06:32:47;;;;;;;4.40;2.87;;;;;;;9.56;100.00;95143.28;5031532;28;20285;-55
2023/01/23 06:35:13;;;;;;;6.87;4.07;;;;;;;9.26;100.00;95107.47;5030963;28;20189;-56
2023/01/23 06:37:38;;;;;;;5.23;2.93;;;;;;;8.97;100.00;95093.50;5031324;28;20233;-59
2023/01/23 06:40:04;;;;;;;5.13;3.83;;;;;;;8.73;100.00;95074.97;5031109;28;20178;-55
2023/01/23 06:42:30;;;;;;;5.13;2.77;;;;;;;8.64;100.00;95068.84;5031218;28;20210;-56
2023/01/23 06:44:56;;;;;;;4.80;2.90;;;;;;;8.41;100.00;95041.78;5031092;28;20192;-56
2023/01/23 06:47:22;;;;;;;7.73;4.77;;;;;;;8.52;100.00;95069.72;5030862;28;20198;-55
2023/01/23 06:49:48;;;;;;;7.47;3.80;;;;;;;8.45;100.00;95068.50;5031079;28;20604;-55
2023/01/23 06:52:14;;;;;;;7.97;3.80;;;;;;;8.45;100.00;95071.84;5030913;28;20202;-58
2023/01/23 06:54:39;;;;;;;7.03;4.50;;;;;;;8.35;100.00;95070.88;5030882;28;20226;-57
2023/01/23 06:57:05;;;;;;;7.63;5.03;;;;;;;8.28;100.00;95082.34;5029710;28;20576;-58
2023/01/23 06:59:31;;;;;;;9.27;5.00;;;;;;;8.05;100.00;95062.00;5030565;28;20206;-55
2023/01/23 07:01:56;;;;;;;8.63;4.43;;;;;;;8.08;100.00;95085.38;5030673;28;20224;-58
2023/01/23 07:04:22;;;;;;;7.33;4.83;;;;;;;8.06;100.00;95094.81;5046063;28;20221;-56
2023/01/23 07:06:47;;;;;;;6.00;4.10;;;;;;;8.01;100.00;95096.03;5030889;28;20237;-56
2023/01/23 07:09:12;;;;;;;8.40;4.70;;;;;;;8.01;100.00;95103.63;5030832;28;20218;-56
2023/01/23 07:11:38;;;;;;;8.17;5.00;;;;;;;7.93;100.00;95109.22;5030936;28;20186;-56
2023/01/23 07:14:04;;;;;;;13.27;6.93;;;;;;;8.00;100.00;95105.34;5030944;28;20222;-57
2023/01/23 07:16:29;;;;;;;9.50;4.97;;;;;;;7.97;100.00;95107.28;5030530;28;20194;-57
2023/01/23 07:18:57;;;;;;;7.00;4.87;;;;;;;7.98;100.00;95097.06;5030683;28;20206;-60
2023/01/23 07:21:23;;;;;;;7.43;4.73;;;;;;;8.03;100.00;95112.75;5030372;28;20566;-56
2023/01/23 07:23:49;;;;;;;18.53;10.87;;;;;;;8.01;100.00;95112.06;5030447;28;20260;-56
2023/01/23 07:26:15;;;;;;;8.80;5.93;;;;;;;7.95;100.00;95107.41;5030415;28;20305;-55
2023/01/23 07:28:40;;;;;;;10.93;6.33;;;;;;;7.87;100.00;95116.41;5032700;28;20260;-56
2023/01/23 07:31:06;;;;;;;9.37;5.83;;;;;;;7.70;100.00;95099.00;5034203;28;20601;-56
2023/01/23 07:33:32;;;;;;;10.70;6.13;;;;;;;7.72;100.00;95114.88;5033653;28;20626;-56
2023/01/23 07:35:57;;;;;;;10.57;5.50;;;;;;;7.68;100.00;95126.13;5034349;28;20190;-58
2023/01/23 07:38:23;;;;;;;11.33;5.87;;;;;;;7.60;100.00;95107.22;5033865;28;20749;-58
2023/01/23 07:40:49;;;;;;;10.53;5.63;;;;;;;7.62;100.00;95127.34;5034148;28;20186;-56
2023/01/23 07:43:15;;;;;;;9.87;5.13;;;;;;;7.62;100.00;95124.81;5033719;28;20246;-57
2023/01/23 07:45:40;;;;;;;9.70;5.03;;;;;;;7.56;100.00;95128.56;5032319;28;20221;-57
2023/01/23 07:48:06;;;;;;;8.67;5.63;;;;;;;7.68;100.00;95144.66;5033440;28;20344;-57
2023/01/23 07:50:31;;;;;;;10.30;5.27;;;;;;;7.63;100.00;95136.56;5048649;28;20254;-58
2023/01/23 07:52:57;;;;;;;10.83;5.40;;;;;;;7.62;100.00;95123.09;5033168;28;20222;-57
2023/01/23 07:55:22;;;;;;;8.47;4.70;;;;;;;7.71;100.00;95152.06;5031205;28;20202;-58
2023/01/23 07:57:48;;;;;;;7.67;5.50;;;;;;;7.62;100.00;95127.34;5044170;22;20252;-55
2023/01/23 08:00:20;;;;;;;7.23;4.83;;;;;;;7.76;100.00;95157.59;5053072;28;20185;-56
2023/01/23 08:02:45;;;;;;;9.03;4.93;;;;;;;7.61;100.00;95143.44;5053358;28;20230;-55
2023/01/23 08:05:11;;;;;;;6.93;4.60;;;;;;;7.58;100.00;95133.50;5053880;28;20193;-57
2023/01/23 08:07:36;;;;;;;7.40;4.83;;;;;;;7.74;100.00;95159.44;5068553;28;20213;-55
2023/01/23 08:10:02;;;;;;;8.07;4.53;;;;;;;7.72;100.00;95150.31;5052904;28;20303;-55
2023/01/23 08:12:27;;;;;;;6.37;4.30;;;;;;;7.62;100.00;95155.97;5053120;28;20275;-55
2023/01/23 08:14:53;;;;;;;5.57;3.90;;;;;;;7.68;100.00;95185.13;5053116;28;20193;-56
2023/01/23 08:17:18;;;;;;;9.27;4.80;;;;;;;7.68;100.00;95164.06;5052916;28;20348;-55
2023/01/23 08:19:44;;;;;;;9.87;4.50;;;;;;;7.73;100.00;95162.06;5052826;28;20189;-57
2023/01/23 08:22:09;;;;;;;8.23;4.30;;;;;;;7.68;100.00;95187.66;5051956;28;20189;-57
2023/01/23 08:24:35;;;;;;;7.37;4.00;;;;;;;7.55;100.00;95185.09;5051233;28;20193;-58
2023/01/23 08:27:01;;;;;;;9.13;3.70;;;;;;;7.58;100.00;95189.97;5050527;28;20269;-57
2023/01/23 08:29:26;;;;;;;6.63;4.10;;;;;;;7.57;100.00;95198.47;5050231;28;20857;-58
2023/01/23 08:31:53;;;;;;;5.60;3.40;;;;;;;7.60;100.00;95208.41;5049657;28;20190;-56
2023/01/23 08:34:20;;;;;;;5.87;3.30;;;;;;;7.63;100.00;95213.25;5049324;28;20598;-56
2023/01/23 08:36:46;;;;;;;6.30;3.77;;;;;;;7.64;100.00;95230.06;5049217;28;20191;-55
2023/01/23 08:39:11;;;;;;;7.00;3.87;;;;;;;7.69;100.00;95217.13;5049752;28;20213;-55
2023/01/23 08:41:36;;;;;;;5.13;3.33;;;;;;;7.69;100.00;95237.38;5051303;28;20255;-55
2023/01/23 08:44:03;;;;;;;7.40;3.37;;;;;;;7.64;100.00;95209.00;5051280;28;20210;-55
2023/01/23 08:46:28;;;;;;;7.43;3.37;;;;;;;7.70;100.00;95218.72;5052440;28;20725;-56
2023/01/23 08:48:54;;;;;;;5.93;2.73;;;;;;;7.65;100.00;95230.88;5052318;28;20218;-54
2023/01/23 08:51:20;;;;;;;3.90;2.90;;;;;;;7.58;100.00;95233.00;5052217;28;20196;-53
2023/01/23 08:53:45;;;;;;;6.07;3.20;;;;;;;7.59;100.00;95214.34;5051422;28;20216;-54
2023/01/23 08:56:16;;;;;;;5.87;2.43;;;;;;;7.60;100.00;95227.81;5051584;28;20212;-55
2023/01/23 08:58:42;;;;;;;3.53;2.57;;;;;;;7.63;100.00;95241.09;5052320;28;20213;-55
2023/01/23 09:01:19;;;;;;;6.90;3.03;;;;;;;7.63;100.00;95252.94;5052195;28;20197;-55
2023/01/23 09:03:45;;;;;;;4.57;2.20;;;;;;;7.60;100.00;95258.19;5052383;28;20221;-55
2023/01/23 09:06:12;;;;;;;4.43;2.80;;;;;;;7.59;100.00;95251.50;5052064;28;20181;-53
2023/01/23 09:08:38;;;;;;;3.33;2.63;;;;;;;7.57;100.00;95251.59;5051946;28;20217;-54
2023/01/23 09:11:05;;;;;;;4.60;3.10;;;;;;;7.61;100.00;95239.56;5052145;28;20185;-54
2023/01/23 09:13:31;;;;;;;3.37;1.97;;;;;;;7.35;100.00;95235.34;5051781;28;20213;-55
2023/01/23 09:15:56;;;;;;;5.00;2.70;;;;;;;7.52;100.00;95230.84;5051977;28;20597;-52
2023/01/23 09:18:23;;;;;;;4.53;2.53;;;;;;;7.43;100.00;95225.56;5051699;28;20220;-54
2023/01/23 09:20:49;;;;;;;5.83;3.10;;;;;;;7.62;100.00;95257.19;5051985;28;20193;-55
2023/01/23 09:23:14;;;;;;;4.70;3.53;;;;;;;7.73;100.00;95264.09;5050834;28;20927;-54
2023/01/23 09:25:40;;;;;;;4.93;2.30;;;;;;;7.65;100.00;95276.44;5049598;28;20201;-55
2023/01/23 09:28:06;;;;;;;4.10;2.53;;;;;;;7.58;100.00;95270.94;5050179;28;20205;-55
2023/01/23 09:30:31;;;;;;;4.17;2.83;;;;;;;7.62;100.00;95269.00;5050445;28;20189;-55
2023/01/23 09:32:56;;;;;;;5.73;2.63;;;;;;;7.78;100.00;95251.16;5049651;28;20516;-56
2023/01/23 09:35:22;;;;;;;4.83;2.70;;;;;;;7.78;100.00;95282.31;5050049;28;20657;-55
2023/01/23 09:38:01;;;;;;;6.33;2.50;;;;;;;7.84;100.00;95258.34;5049884;28;20213;-55
2023/01/23 09:40:55;;;;;;;4.40;3.07;;;;;;;7.88;100.00;95263.09;5050019;28;20196;-55
2023/01/23 09:43:29;;;;;;;4.30;2.53;;;;;;;7.81;100.00;95246.72;5042575;28;20261;-56
2023/01/23 09:46:18;;;;;;;5.03;2.33;;;;;;;7.90;100.00;95230.91;5051809;28;20327;-55
2023/01/23 09:49:03;;;;;;;5.77;2.77;;;;;;;7.89;100.00;95224.25;5051406;28;20332;-55
2023/01/23 09:51:53;;;;;;;3.83;3.03;;;;;;;7.75;100.00;95201.53;5050685;28;20204;-56
2023/01/23 09:54:19;;;;;;;18.13;9.87;;;;;;;7.57;100.00;95160.53;5051115;28;20228;-58
2023/01/23 09:56:46;;;;;;;7.57;5.07;;;;;;;7.82;100.00;95177.44;5049579;28;20682;-55
2023/01/23 09:59:36;;;;;;;25.27;15.97;;;;;;;7.46;100.00;95099.72;5050259;28;20210;-58
2023/01/23 10:02:13;;;;;;;3.97;2.87;;;;;;;7.82;100.00;95189.31;5049557;28;20546;-57
2023/01/23 10:04:38;;;;;;;4.93;3.10;;;;;;;7.80;100.00;95194.44;5050704;28;20197;-56
2023/01/23 10:07:34;;;;;;;5.30;3.20;;;;;;;7.75;100.00;95171.19;5050537;28;20250;-57
2023/01/23 10:10:28;;;;;;;4.20;2.67;;;;;;;7.72;100.00;95165.50;5019119;28;20228;-58
2023/01/23 10:13:01;;;;;;;3.87;3.20;;;;;;;7.81;100.00;95182.63;5051180;28;20216;-56
2023/01/23 10:15:32;;;;;;;6.27;4.03;;;;;;;7.76;100.00;95165.19;5050907;28;20188;-54
2023/01/23 10:18:16;;;;;;;3.90;3.03;;;;;;;7.71;100.00;95159.66;5051257;28;20213;-55
2023/01/23 10:21:09;;;;;;;5.83;3.53;;;;;;;7.85;100.00;95169.66;5051236;28;20189;-57
2023/01/23 10:23:40;;;;;;;4.30;2.80;;;;;;;7.82;100.00;95182.50;5050951;28;20231;-56
2023/01/23 10:26:16;;;;;;;6.03;3.77;;;;;;;7.80;100.00;95164.09;5050212;28;20197;-56
2023/01/23 10:28:43;;;;;;;6.10;3.83;;;;;;;7.74;100.00;95161.97;5050795;28;20255;-55
2023/01/23 10:31:21;;;;;;;8.47;4.10;;;;;;;7.82;100.00;95169.06;5050906;28;20566;-55
2023/01/23 10:34:08;;;;;;;5.97;3.80;;;;;;;7.78;100.00;95168.44;5050860;28;20263;-55
2023/01/23 10:37:01;;;;;;;5.83;3.57;;;;;;;7.70;100.00;95168.13;5050724;28;20213;-55
2023/01/23 10:39:34;;;;;;;6.50;3.93;;;;;;;7.65;100.00;95176.00;5051030;28;20217;-55
2023/01/23 10:41:59;;;;;;;7.47;4.50;;;;;;;7.63;100.00;95172.78;5050936;28;20201;-58
2023/01/23 10:44:24;;;;;;;6.47;4.37;;;;;;;7.81;100.00;95191.03;5050817;28;20721;-56
2023/01/23 10:46:59;;;;;;;7.33;4.37;;;;;;;7.68;100.00;95171.66;5050815;28;20539;-58
2023/01/23 10:49:30;;;;;;;6.03;4.23;;;;;;;7.69;100.00;95160.66;5050424;28;20255;-57
2023/01/23 10:51:55;;;;;;;9.00;4.70;;;;;;;7.71;100.00;95179.06;5050582;28;20239;-57
2023/01/23 10:54:23;;;;;;;5.93;4.73;;;;;;;7.77;100.00;95179.47;5050774;28;20648;-56
2023/01/23 10:56:48;;;;;;;7.47;4.43;;;;;;;7.69;100.00;95168.22;5050410;28;20200;-54
2023/01/23 10:59:50;;;;;;;6.83;4.90;;;;;;;7.57;100.00;95173.16;5049132;28;20217;-57
2023/01/23 11:02:30;;;;;;;6.57;4.93;;;;;;;7.45;100.00;95152.94;5050896;28;20181;-56
2023/01/23 11:04:57;;;;;;;7.77;4.90;;;;;;;7.50;100.00;95166.09;5054227;28;20264;-56
2023/01/23 11:07:27;;;;;;;8.93;5.23;;;;;;;7.56;100.00;95170.75;5054155;28;20186;-56
2023/01/23 11:09:57;;;;;;;7.43;4.67;;;;;;;7.51;100.00;95172.78;5052232;28;20721;-57
2023/01/23 11:12:31;;;;;;;6.40;4.87;;;;;;;7.54;100.00;95172.56;5052436;28;20186;-55
2023/01/23 11:15:20;;;;;;;7.17;4.97;;;;;;;7.59;100.00;95178.94;5053081;28;20198;-57
2023/01/23 11:17:48;;;;;;;8.80;4.37;;;;;;;7.62;100.00;95175.41;5051299;28;20220;-58
2023/01/23 11:20:33;;;;;;;6.10;4.17;;;;;;;7.63;100.00;95180.34;5053146;28;20311;-58
2023/01/23 11:23:09;;;;;;;7.30;5.20;;;;;;;7.78;100.00;95183.63;5069263;28;20674;-56
2023/01/23 11:25:36;;;;;;;8.60;5.77;;;;;;;7.84;100.00;95180.69;5053808;28;20228;-56
2023/01/23 11:28:22;;;;;;;8.47;5.80;;;;;;;7.96;100.00;95191.75;5053511;28;20239;-56
2023/01/23 11:30:52;;;;;;;8.83;5.47;;;;;;;8.03;100.00;95183.66;5053600;28;20178;-56
2023/01/23 11:33:36;;;;;;;6.13;4.10;;;;;;;7.77;100.00;95188.78;5053521;28;20235;-55
2023/01/23 11:36:30;;;;;;;6.07;4.00;;;;;;;7.76;100.00;95179.59;5053723;28;20558;-56
2023/01/23 11:39:36;;;;;;;6.23;4.30;;;;;;;7.82;100.00;95182.50;5052591;28;20686;-56
2023/01/23 11:42:02;;;;;;;6.63;4.70;;;;;;;7.69;100.00;95175.81;5053514;28;20181;-57
2023/01/23 11:44:29;;;;;;;5.77;3.90;;;;;;;7.72;100.00;95175.59;5053505;28;20584;-56
2023/01/23 11:47:27;;;;;;;6.87;4.37;;;;;;;7.78;100.00;95181.09;5053432;28;20188;-56